Current Conditions - Area Ports

 

CYWH - Victoria Harbour, British Columbia, Canada
Distance from station: WSW 10km
Updated: 10/20/2018 9:00pm
NOT Current
Clear
Clear
 Wind from calm
Wind: Calm
Temperature: 10°C
Dew Point: 8°C
Humidity: 88%
Barometer: 1018.3 hPa
Clouds: Clear
Visibility: 24 km
2018/10/21 04:00 CYWH 210400Z 00000KT 15SM SKC 10/08 A3007 RMK SLP185
KFHR - Friday Harbor, Washington, USA
Distance from station: ENE 19km
Updated: 10/21/2018 2:53am
Clear
Clear
 Wind from calm
Wind: Calm
Temperature: 10°C
Dew Point: 8°C
Humidity: 88%
Barometer: 1017.9 hPa
Clouds: Clear
Visibility: 16 km
2018/10/21 09:53 KFHR 210953Z AUTO 00000KT 10SM CLR 10/08 A3006 RMK AO2 SLP178 T01000083
 
KORS - Eastsound/Orcas, Washington, USA
Distance from station: NE 38km
Updated: 10/21/2018 2:55am
Overcast
Overcast
 Wind from calm
Wind: Calm
Temperature: 10°C
Dew Point: 10°C
Humidity: 100%
Barometer: 1017.3 hPa
Clouds: Overcast
Visibility: 13 km
Cloud details: Overcast 244 m
2018/10/21 09:55 KORS 210955Z AUTO 00000KT 8SM OVC008 10/10 A3004 RMK AO2
KNUW - Whidbey Is. Nas, Washington, USA
Distance from station: ESE 47km
Updated: 10/21/2018 2:56am
Fog, Overcast
Fog, Overcast
 Wind from E
Wind: E 6 km/h
Temperature: 6°C
Dew Point: 4°C
Humidity: 87%
Barometer: 1018.6 hPa
Summary: Fog
Clouds: Overcast
Visibility: 0.4 km
Cloud details: Overcast 91 m
2018/10/21 09:56 KNUW 210956Z 10003KT 1/4SM FG VV003 06/04 A3008 RMK AO2 TWR VIS 1/2 SLP186 T00610044 VISNO $
 
CWEZ - Saturna Isl (map, British Columbia, Canada
Distance from station: NNE 40km
Updated: 10/21/2018 2:00am

 Wind from WNW
Wind: WNW 7 km/h
Temperature: 11°C
Dew Point: 10°C
Humidity: 94%
2018/10/21 09:00 CWEZ 210900Z AUTO 29004KT 11/10 RMK AO1 SLP171 T01140104 56005
CYCD - Nanaimo Airport, British Columbia, Canada
Distance from station: NW 80km
Updated: 10/20/2018 9:00pm
NOT Current
Shallow fog, Clear
Shallow fog, Clear
 Wind from calm
Wind: Calm
Temperature: 8°C
Dew Point: 7°C
Humidity: 93%
Barometer: 1018.3 hPa
Summary: Shallow Fog
Clouds: Clear
Visibility: 32 km
2018/10/21 04:00 CYCD 210400Z 00000KT 20SM MIFG SKC 08/07 A3007 RMK LAST STFD OBS/NEXT 211300Z SLP185
 
CWVF - Sand Heads (ls), British Columbia, Canada
Distance from station: N 72km
Updated: 10/21/2018 2:00am

 Wind from NW
Wind: NW 30 km/h
Temperature: 12°C
Dew Point: 11°C
Humidity: 94%
2018/10/21 09:00 CWVF 210900Z AUTO 32016KT 12/11 RMK AO1 PK WND 32020/0859 T01200109
CWQK - Race Rocks Autob, British Columbia, Canada
Distance from station: SW 26km
Updated: 10/21/2018 2:00am

 Wind from ENE
Wind: ENE 11 km/h
Temperature: 10°C
Wind Chill: 8°C
Dew Point: 9°C
Humidity: 94%
2018/10/21 09:00 CWQK 210900Z AUTO 06006KT 10/09 RMK AO1 SLP177 T00970093 58004
 
CWSP - Sheringham Autob, British Columbia, Canada
Distance from station: W 49km
Updated: 10/20/2018 6:00am
NOT Current

 Wind from E
Wind: E 2 km/h
2018/10/20 13:00 CWSP 201300Z AUTO 09001KT RMK AO1 58001